sensor_id;sensor_type;location;lat;lon;timestamp;pressure;altitude;pressure_sealevel;temperature;humidity
69911;BME280;57194;50.156;14.518;2022-08-19T00:02:24;97926.88;;;23.41;78.69
69911;BME280;57194;50.156;14.518;2022-08-19T00:04:49;97927.84;;;23.37;79.64
69911;BME280;57194;50.156;14.518;2022-08-19T00:07:20;97926.91;;;23.33;80.13
69911;BME280;57194;50.156;14.518;2022-08-19T00:09:46;97924.72;;;23.26;80.47
69911;BME280;57194;50.156;14.518;2022-08-19T00:12:11;97918.41;;;23.22;81.40
69911;BME280;57194;50.156;14.518;2022-08-19T00:14:37;97915.13;;;23.16;82.47
69911;BME280;57194;50.156;14.518;2022-08-19T00:17:04;97922.84;;;23.09;82.65
69911;BME280;57194;50.156;14.518;2022-08-19T00:19:32;97925.72;;;23.04;83.46
69911;BME280;57194;50.156;14.518;2022-08-19T00:21:58;97931.59;;;22.98;84.15
69911;BME280;57194;50.156;14.518;2022-08-19T00:24:24;97927.97;;;22.93;84.94
69911;BME280;57194;50.156;14.518;2022-08-19T00:26:50;97930.00;;;22.88;85.26
69911;BME280;57194;50.156;14.518;2022-08-19T00:29:18;97933.66;;;22.83;86.22
69911;BME280;57194;50.156;14.518;2022-08-19T00:31:45;97929.22;;;22.79;86.91
69911;BME280;57194;50.156;14.518;2022-08-19T00:34:12;97917.53;;;22.75;87.62
69911;BME280;57194;50.156;14.518;2022-08-19T00:36:38;97921.94;;;22.71;88.16
69911;BME280;57194;50.156;14.518;2022-08-19T00:39:04;97917.53;;;22.66;88.12
69911;BME280;57194;50.156;14.518;2022-08-19T00:41:29;97921.16;;;22.61;89.14
69911;BME280;57194;50.156;14.518;2022-08-19T00:46:27;97905.88;;;22.53;90.00
69911;BME280;57194;50.156;14.518;2022-08-19T00:48:53;97904.91;;;22.49;90.58
69911;BME280;57194;50.156;14.518;2022-08-19T00:51:20;97910.91;;;22.46;91.28
69911;BME280;57194;50.156;14.518;2022-08-19T00:53:45;97913.75;;;22.41;91.80
69911;BME280;57194;50.156;14.518;2022-08-19T00:56:10;97919.72;;;22.38;92.33
69911;BME280;57194;50.156;14.518;2022-08-19T00:58:36;97929.19;;;22.36;92.45
69911;BME280;57194;50.156;14.518;2022-08-19T01:01:03;97912.16;;;22.32;93.43
69911;BME280;57194;50.156;14.518;2022-08-19T01:03:29;97910.09;;;22.28;93.55
69911;BME280;57194;50.156;14.518;2022-08-19T01:05:55;97917.69;;;22.26;94.32
69911;BME280;57194;50.156;14.518;2022-08-19T01:08:21;97934.72;;;22.22;94.42
69911;BME280;57194;50.156;14.518;2022-08-19T01:10:50;97942.28;;;22.20;95.17
69911;BME280;57194;50.156;14.518;2022-08-19T01:13:19;97934.84;;;22.17;95.34
69911;BME280;57194;50.156;14.518;2022-08-19T01:15:48;97945.09;;;22.15;95.85
69911;BME280;57194;50.156;14.518;2022-08-19T01:18:16;97946.81;;;22.11;96.54
69911;BME280;57194;50.156;14.518;2022-08-19T01:20:43;97951.69;;;22.09;96.73
69911;BME280;57194;50.156;14.518;2022-08-19T01:23:10;97964.59;;;22.07;97.24
69911;BME280;57194;50.156;14.518;2022-08-19T01:25:47;97955.31;;;22.04;97.91
69911;BME280;57194;50.156;14.518;2022-08-19T01:28:21;97959.41;;;22.02;98.08
69911;BME280;57194;50.156;14.518;2022-08-19T01:30:47;97965.34;;;21.98;98.50
69911;BME280;57194;50.156;14.518;2022-08-19T01:33:14;97964.06;;;21.96;98.38
69911;BME280;57194;50.156;14.518;2022-08-19T01:35:40;97960.91;;;21.94;99.07
69911;BME280;57194;50.156;14.518;2022-08-19T01:38:08;97960.44;;;21.92;99.26
69911;BME280;57194;50.156;14.518;2022-08-19T01:40:38;97966.09;;;21.90;99.43
69911;BME280;57194;50.156;14.518;2022-08-19T01:43:05;97968.28;;;21.88;99.89
69911;BME280;57194;50.156;14.518;2022-08-19T01:45:34;97957.09;;;21.86;100.00
69911;BME280;57194;50.156;14.518;2022-08-19T01:48:00;97955.53;;;21.85;99.84
69911;BME280;57194;50.156;14.518;2022-08-19T01:50:25;97954.25;;;21.83;100.00
69911;BME280;57194;50.156;14.518;2022-08-19T01:52:51;97961.03;;;21.80;100.00
69911;BME280;57194;50.156;14.518;2022-08-19T01:55:19;97962.75;;;21.76;100.00
69911;BME280;57194;50.156;14.518;2022-08-19T01:57:48;97975.34;;;21.76;100.00
69911;BME280;57194;50.156;14.518;2022-08-19T02:00:18;97969.00;;;21.72;100.00
69911;BME280;57194;50.156;14.518;2022-08-19T02:02:44;97974.69;;;21.70;100.00
69911;BME280;57194;50.156;14.518;2022-08-19T02:05:11;97984.41;;;21.66;100.00
69911;BME280;57194;50.156;14.518;2022-08-19T02:07:38;98002.38;;;21.65;100.00
69911;BME280;57194;50.156;14.518;2022-08-19T02:10:10;98006.44;;;21.63;100.00
69911;BME280;57194;50.156;14.518;2022-08-19T02:12:36;98008.63;;;21.61;100.00
69911;BME280;57194;50.156;14.518;2022-08-19T02:15:02;98009.72;;;21.60;100.00
69911;BME280;57194;50.156;14.518;2022-08-19T02:17:28;98008.16;;;21.59;100.00
69911;BME280;57194;50.156;14.518;2022-08-19T02:19:55;98002.31;;;21.57;100.00
69911;BME280;57194;50.156;14.518;2022-08-19T02:22:22;98004.50;;;21.55;100.00
69911;BME280;57194;50.156;14.518;2022-08-19T02:24:47;98015.53;;;21.53;100.00
69911;BME280;57194;50.156;14.518;2022-08-19T02:27:14;98019.31;;;21.52;100.00
69911;BME280;57194;50.156;14.518;2022-08-19T02:29:39;98014.28;;;21.51;100.00
69911;BME280;57194;50.156;14.518;2022-08-19T02:32:06;98019.13;;;21.49;100.00
69911;BME280;57194;50.156;14.518;2022-08-19T02:34:31;98029.06;;;21.48;100.00
69911;BME280;57194;50.156;14.518;2022-08-19T02:36:56;98033.91;;;21.46;100.00
69911;BME280;57194;50.156;14.518;2022-08-19T02:39:22;98039.56;;;21.45;100.00
69911;BME280;57194;50.156;14.518;2022-08-19T02:41:47;98028.09;;;21.44;100.00
69911;BME280;57194;50.156;14.518;2022-08-19T02:44:13;98019.25;;;21.44;100.00
69911;BME280;57194;50.156;14.518;2022-08-19T02:46:38;98024.13;;;21.42;100.00
69911;BME280;57194;50.156;14.518;2022-08-19T02:49:07;98024.44;;;21.40;100.00
69911;BME280;57194;50.156;14.518;2022-08-19T02:51:35;98024.44;;;21.40;100.00
69911;BME280;57194;50.156;14.518;2022-08-19T02:54:01;98030.09;;;21.39;100.00
69911;BME280;57194;50.156;14.518;2022-08-19T02:56:27;98028.50;;;21.38;100.00
69911;BME280;57194;50.156;14.518;2022-08-19T02:58:55;98033.38;;;21.36;100.00
69911;BME280;57194;50.156;14.518;2022-08-19T03:01:29;98043.28;;;21.35;100.00
69911;BME280;57194;50.156;14.518;2022-08-19T03:03:56;98053.50;;;21.33;100.00
69911;BME280;57194;50.156;14.518;2022-08-19T03:06:22;98055.69;;;21.31;100.00
69911;BME280;57194;50.156;14.518;2022-08-19T03:08:48;98061.34;;;21.29;100.00
69911;BME280;57194;50.156;14.518;2022-08-19T03:11:20;98055.50;;;21.27;100.00
69911;BME280;57194;50.156;14.518;2022-08-19T03:13:46;98056.59;;;21.26;100.00
69911;BME280;57194;50.156;14.518;2022-08-19T03:16:14;98053.44;;;21.24;100.00
69911;BME280;57194;50.156;14.518;2022-08-19T03:18:40;98050.28;;;21.22;100.00
69911;BME280;57194;50.156;14.518;2022-08-19T03:21:06;98046.00;;;21.21;100.00
69911;BME280;57194;50.156;14.518;2022-08-19T03:23:32;98043.63;;;21.20;100.00
69911;BME280;57194;50.156;14.518;2022-08-19T03:25:58;98041.53;;;21.17;100.00
69911;BME280;57194;50.156;14.518;2022-08-19T03:28:24;98041.84;;;21.15;100.00
69911;BME280;57194;50.156;14.518;2022-08-19T03:31:04;98047.81;;;21.12;100.00
69911;BME280;57194;50.156;14.518;2022-08-19T03:33:32;98047.31;;;21.10;100.00
69911;BME280;57194;50.156;14.518;2022-08-19T03:36:21;98045.25;;;21.07;100.00
69911;BME280;57194;50.156;14.518;2022-08-19T03:38:50;98051.69;;;21.06;100.00
69911;BME280;57194;50.156;14.518;2022-08-19T03:41:19;98057.34;;;21.05;100.00
69911;BME280;57194;50.156;14.518;2022-08-19T03:43:46;98048.03;;;21.02;100.00
69911;BME280;57194;50.156;14.518;2022-08-19T03:46:27;98045.16;;;20.98;100.00
69911;BME280;57194;50.156;14.518;2022-08-19T03:48:54;98037.44;;;20.97;100.00
69911;BME280;57194;50.156;14.518;2022-08-19T03:51:26;98034.59;;;20.93;100.00
69911;BME280;57194;50.156;14.518;2022-08-19T03:53:53;98035.97;;;20.91;100.00
69911;BME280;57194;50.156;14.518;2022-08-19T03:56:19;98033.91;;;20.88;100.00
69911;BME280;57194;50.156;14.518;2022-08-19T03:58:45;98045.22;;;20.85;100.00
69911;BME280;57194;50.156;14.518;2022-08-19T04:01:14;98030.84;;;20.81;100.00
69911;BME280;57194;50.156;14.518;2022-08-19T04:03:40;98036.84;;;20.78;100.00
69911;BME280;57194;50.156;14.518;2022-08-19T04:06:21;98039.03;;;20.76;100.00
69911;BME280;57194;50.156;14.518;2022-08-19T04:08:49;98042.00;;;20.74;100.00
69911;BME280;57194;50.156;14.518;2022-08-19T04:11:17;98030.63;;;20.69;100.00
69911;BME280;57194;50.156;14.518;2022-08-19T04:13:45;98035.19;;;20.68;100.00
69911;BME280;57194;50.156;14.518;2022-08-19T04:16:11;98037.34;;;20.66;100.00
69911;BME280;57194;50.156;14.518;2022-08-19T04:18:37;98042.69;;;20.66;100.00
69911;BME280;57194;50.156;14.518;2022-08-19T04:21:03;98043.00;;;20.64;100.00
69911;BME280;57194;50.156;14.518;2022-08-19T04:23:29;98048.34;;;20.64;100.00
69911;BME280;57194;50.156;14.518;2022-08-19T04:25:55;98053.69;;;20.64;100.00
69911;BME280;57194;50.156;14.518;2022-08-19T04:28:21;98058.25;;;20.64;100.00
69911;BME280;57194;50.156;14.518;2022-08-19T04:30:53;98064.38;;;20.64;100.00
69911;BME280;57194;50.156;14.518;2022-08-19T04:33:21;98062.19;;;20.66;100.00
69911;BME280;57194;50.156;14.518;2022-08-19T04:35:49;98063.78;;;20.67;100.00
69911;BME280;57194;50.156;14.518;2022-08-19T04:38:18;98077.63;;;20.70;100.00
69911;BME280;57194;50.156;14.518;2022-08-19T04:40:46;98085.84;;;20.73;100.00
69911;BME280;57194;50.156;14.518;2022-08-19T04:43:51;98106.31;;;20.78;100.00
69911;BME280;57194;50.156;14.518;2022-08-19T04:46:16;98111.25;;;20.84;100.00
69911;BME280;57194;50.156;14.518;2022-08-19T04:48:42;98124.19;;;20.91;100.00
69911;BME280;57194;50.156;14.518;2022-08-19T04:51:23;98115.47;;;20.99;100.00
69911;BME280;57194;50.156;14.518;2022-08-19T04:53:49;98119.63;;;21.05;100.00
69911;BME280;57194;50.156;14.518;2022-08-19T04:56:16;98133.38;;;21.12;100.00
69911;BME280;57194;50.156;14.518;2022-08-19T04:58:44;98130.00;;;21.20;100.00
69911;BME280;57194;50.156;14.518;2022-08-19T05:01:12;98132.78;;;21.29;100.00
69911;BME280;57194;50.156;14.518;2022-08-19T05:03:38;98133.63;;;21.38;100.00
69911;BME280;57194;50.156;14.518;2022-08-19T05:06:06;98126.78;;;21.46;100.00
69911;BME280;57194;50.156;14.518;2022-08-19T05:08:33;98132.97;;;21.55;100.00
69911;BME280;57194;50.156;14.518;2022-08-19T05:10:59;98133.03;;;21.63;100.00
69911;BME280;57194;50.156;14.518;2022-08-19T05:13:25;98135.75;;;21.72;100.00
69911;BME280;57194;50.156;14.518;2022-08-19T05:15:57;98150.78;;;21.82;100.00
69911;BME280;57194;50.156;14.518;2022-08-19T05:18:23;98149.25;;;21.89;100.00
69911;BME280;57194;50.156;14.518;2022-08-19T05:21:09;98158.75;;;21.95;99.37
69911;BME280;57194;50.156;14.518;2022-08-19T05:23:53;98159.16;;;22.03;99.07
69911;BME280;57194;50.156;14.518;2022-08-19T05:26:18;98161.69;;;22.08;98.77
69911;BME280;57194;50.156;14.518;2022-08-19T05:28:44;98171.19;;;22.14;98.28
69911;BME280;57194;50.156;14.518;2022-08-19T05:31:09;98169.16;;;22.19;98.17
69911;BME280;57194;50.156;14.518;2022-08-19T05:33:34;98172.50;;;22.25;97.71
69911;BME280;57194;50.156;14.518;2022-08-19T05:36:01;98167.00;;;22.30;97.38
69911;BME280;57194;50.156;14.518;2022-08-19T05:38:27;98168.75;;;22.35;96.76
69911;BME280;57194;50.156;14.518;2022-08-19T05:40:53;98159.78;;;22.39;96.70
69911;BME280;57194;50.156;14.518;2022-08-19T05:43:19;98160.44;;;22.45;96.15
69911;BME280;57194;50.156;14.518;2022-08-19T05:45:44;98162.69;;;22.51;95.86
69911;BME280;57194;50.156;14.518;2022-08-19T05:48:10;98165.53;;;22.55;95.54
69911;BME280;57194;50.156;14.518;2022-08-19T05:50:38;98165.09;;;22.61;95.35
69911;BME280;57194;50.156;14.518;2022-08-19T05:53:04;98178.34;;;22.67;94.85
69911;BME280;57194;50.156;14.518;2022-08-19T05:55:30;98183.56;;;22.72;94.65
69911;BME280;57194;50.156;14.518;2022-08-19T05:57:55;98195.75;;;22.78;94.52
69911;BME280;57194;50.156;14.518;2022-08-19T06:00:21;98199.59;;;22.85;94.05
69911;BME280;57194;50.156;14.518;2022-08-19T06:02:46;98206.09;;;22.93;94.03
69911;BME280;57194;50.156;14.518;2022-08-19T06:05:12;98216.84;;;23.02;93.47
69911;BME280;57194;50.156;14.518;2022-08-19T06:07:39;98210.69;;;23.10;92.78
69911;BME280;57194;50.156;14.518;2022-08-19T06:10:07;98228.69;;;23.18;92.76
69911;BME280;57194;50.156;14.518;2022-08-19T06:12:33;98233.59;;;23.24;92.38
69911;BME280;57194;50.156;14.518;2022-08-19T06:15:05;98224.00;;;23.32;91.54
69911;BME280;57194;50.156;14.518;2022-08-19T06:17:31;98227.31;;;23.38;91.14
69911;BME280;57194;50.156;14.518;2022-08-19T06:22:22;98242.50;;;23.51;90.33
69911;BME280;57194;50.156;14.518;2022-08-19T06:24:47;98249.00;;;23.58;90.02
69911;BME280;57194;50.156;14.518;2022-08-19T06:27:12;98261.66;;;23.67;89.88
69911;BME280;57194;50.156;14.518;2022-08-19T06:29:38;98253.91;;;23.74;89.11
69911;BME280;57194;50.156;14.518;2022-08-19T06:32:03;98256.59;;;23.82;88.71
69911;BME280;57194;50.156;14.518;2022-08-19T06:34:32;98247.25;;;23.88;88.29
69911;BME280;57194;50.156;14.518;2022-08-19T06:37:00;98252.94;;;23.96;88.26
69911;BME280;57194;50.156;14.518;2022-08-19T06:39:33;98252.47;;;24.02;87.53
69911;BME280;57194;50.156;14.518;2022-08-19T06:42:00;98253.72;;;24.13;87.04
69911;BME280;57194;50.156;14.518;2022-08-19T06:44:28;98244.09;;;24.21;86.55
69911;BME280;57194;50.156;14.518;2022-08-19T06:46:55;98244.75;;;24.27;86.13
69911;BME280;57194;50.156;14.518;2022-08-19T06:49:22;98242.66;;;24.32;85.86
69911;BME280;57194;50.156;14.518;2022-08-19T06:51:48;98241.06;;;24.40;84.92
69911;BME280;57194;50.156;14.518;2022-08-19T06:54:15;98251.50;;;24.50;84.61
69911;BME280;57194;50.156;14.518;2022-08-19T06:56:41;98256.34;;;24.56;83.98
69911;BME280;57194;50.156;14.518;2022-08-19T06:59:10;98270.41;;;24.62;83.95
69911;BME280;57194;50.156;14.518;2022-08-19T07:01:39;98267.56;;;24.67;83.84
69911;BME280;57194;50.156;14.518;2022-08-19T07:04:08;98274.34;;;24.73;83.42
69911;BME280;57194;50.156;14.518;2022-08-19T07:06:35;98272.25;;;24.79;83.23
69911;BME280;57194;50.156;14.518;2022-08-19T07:09:01;98273.34;;;24.86;82.44
69911;BME280;57194;50.156;14.518;2022-08-19T07:11:27;98273.31;;;24.95;81.99
69911;BME280;57194;50.156;14.518;2022-08-19T07:13:52;98276.31;;;25.02;81.83
69911;BME280;57194;50.156;14.518;2022-08-19T07:16:18;98273.78;;;25.06;81.05
69911;BME280;57194;50.156;14.518;2022-08-19T07:18:45;98285.81;;;25.08;80.81
69911;BME280;57194;50.156;14.518;2022-08-19T07:21:32;98283.25;;;25.12;80.62
69911;BME280;57194;50.156;14.518;2022-08-19T07:23:59;98278.34;;;25.14;80.93
69911;BME280;57194;50.156;14.518;2022-08-19T07:26:30;98266.47;;;25.15;80.19
69911;BME280;57194;50.156;14.518;2022-08-19T07:28:56;98257.72;;;25.18;80.17
69911;BME280;57194;50.156;14.518;2022-08-19T07:31:24;98254.41;;;25.21;79.84
69911;BME280;57194;50.156;14.518;2022-08-19T07:33:52;98246.00;;;25.23;79.62
69911;BME280;57194;50.156;14.518;2022-08-19T07:36:23;98246.88;;;25.27;79.25
69911;BME280;57194;50.156;14.518;2022-08-19T07:38:50;98246.25;;;25.30;79.64
69911;BME280;57194;50.156;14.518;2022-08-19T07:41:19;98230.56;;;25.32;79.37
69911;BME280;57194;50.156;14.518;2022-08-19T07:43:46;98228.00;;;25.35;78.84
69911;BME280;57194;50.156;14.518;2022-08-19T07:46:12;98242.06;;;25.41;78.46
69911;BME280;57194;50.156;14.518;2022-08-19T07:48:39;98231.41;;;25.44;78.42
69911;BME280;57194;50.156;14.518;2022-08-19T07:51:07;98226.97;;;25.48;78.36
69911;BME280;57194;50.156;14.518;2022-08-19T07:53:33;98230.13;;;25.50;77.95
69911;BME280;57194;50.156;14.518;2022-08-19T07:55:59;98235.19;;;25.52;77.29
69911;BME280;57194;50.156;14.518;2022-08-19T07:58:30;98232.16;;;25.53;77.50
69911;BME280;57194;50.156;14.518;2022-08-19T08:00:56;98215.66;;;25.55;77.27
69911;BME280;57194;50.156;14.518;2022-08-19T08:03:22;98205.81;;;25.59;76.58
69911;BME280;57194;50.156;14.518;2022-08-19T08:06:11;98198.34;;;25.65;76.78
69911;BME280;57194;50.156;14.518;2022-08-19T08:08:56;98191.19;;;25.69;75.96
69911;BME280;57194;50.156;14.518;2022-08-19T08:11:42;98186.94;;;25.68;75.76
69911;BME280;57194;50.156;14.518;2022-08-19T08:14:14;98181.41;;;25.64;75.85
69911;BME280;57194;50.156;14.518;2022-08-19T08:16:40;98168.41;;;25.66;75.46
69911;BME280;57194;50.156;14.518;2022-08-19T08:19:07;98163.34;;;25.65;75.77
69911;BME280;57194;50.156;14.518;2022-08-19T08:21:33;98153.97;;;25.62;75.78
69911;BME280;57194;50.156;14.518;2022-08-19T08:23:58;98168.13;;;25.59;75.86
69911;BME280;57194;50.156;14.518;2022-08-19T08:26:24;98172.25;;;25.57;75.65
69911;BME280;57194;50.156;14.518;2022-08-19T08:28:50;98177.59;;;25.65;75.83
69911;BME280;57194;50.156;14.518;2022-08-19T08:31:15;98183.50;;;25.79;75.10
69911;BME280;57194;50.156;14.518;2022-08-19T08:33:41;98189.84;;;25.96;74.61
69911;BME280;57194;50.156;14.518;2022-08-19T08:36:08;98197.50;;;26.06;73.95
69911;BME280;57194;50.156;14.518;2022-08-19T08:38:34;98216.69;;;26.04;73.13
69911;BME280;57194;50.156;14.518;2022-08-19T08:43:52;98239.69;;;26.02;72.98
69911;BME280;57194;50.156;14.518;2022-08-19T08:49:11;98259.41;;;26.14;72.21
69911;BME280;57194;50.156;14.518;2022-08-19T08:51:44;98258.41;;;26.19;72.02
69911;BME280;57194;50.156;14.518;2022-08-19T08:54:14;98264.06;;;26.26;71.73
69911;BME280;57194;50.156;14.518;2022-08-19T08:56:43;98263.88;;;26.31;71.90
69911;BME280;57194;50.156;14.518;2022-08-19T08:59:20;98266.03;;;26.38;71.61
69911;BME280;57194;50.156;14.518;2022-08-19T09:01:46;98272.69;;;26.40;71.10
69911;BME280;57194;50.156;14.518;2022-08-19T09:04:13;98268.88;;;26.41;70.32
69911;BME280;57194;50.156;14.518;2022-08-19T09:09:35;98262.81;;;26.44;70.31
69911;BME280;57194;50.156;14.518;2022-08-19T09:14:57;98260.19;;;26.36;70.37
69911;BME280;57194;50.156;14.518;2022-08-19T09:17:26;98259.06;;;26.37;70.20
69911;BME280;57194;50.156;14.518;2022-08-19T09:22:34;98252.13;;;26.48;69.89
69911;BME280;57194;50.156;14.518;2022-08-19T09:25:01;98256.06;;;26.50;69.86
69911;BME280;57194;50.156;14.518;2022-08-19T09:27:27;98263.84;;;26.52;69.60
69911;BME280;57194;50.156;14.518;2022-08-19T09:29:53;98258.91;;;26.54;69.76
69911;BME280;57194;50.156;14.518;2022-08-19T09:32:20;98257.91;;;26.59;69.16
69911;BME280;57194;50.156;14.518;2022-08-19T09:34:46;98258.81;;;26.63;69.61
69911;BME280;57194;50.156;14.518;2022-08-19T09:37:11;98258.94;;;26.66;69.09
69911;BME280;57194;50.156;14.518;2022-08-19T09:39:37;98250.63;;;26.71;69.24
69911;BME280;57194;50.156;14.518;2022-08-19T09:42:03;98257.00;;;26.79;68.98
69911;BME280;57194;50.156;14.518;2022-08-19T09:44:29;98250.25;;;26.85;68.37
69911;BME280;57194;50.156;14.518;2022-08-19T09:46:55;98251.84;;;26.86;68.32
69911;BME280;57194;50.156;14.518;2022-08-19T09:49:21;98253.41;;;26.87;67.83
69911;BME280;57194;50.156;14.518;2022-08-19T09:51:51;98260.63;;;26.95;67.94
69911;BME280;57194;50.156;14.518;2022-08-19T09:54:17;98255.59;;;27.06;67.11
69911;BME280;57194;50.156;14.518;2022-08-19T09:56:42;98258.28;;;27.18;66.69
69911;BME280;57194;50.156;14.518;2022-08-19T09:59:08;98257.28;;;27.23;66.48
69911;BME280;57194;50.156;14.518;2022-08-19T10:01:34;98270.22;;;27.29;65.84
69911;BME280;57194;50.156;14.518;2022-08-19T10:04:00;98272.81;;;27.38;65.74
69911;BME280;57194;50.156;14.518;2022-08-19T10:06:29;98274.25;;;27.47;65.51
69911;BME280;57194;50.156;14.518;2022-08-19T10:08:58;98275.69;;;27.57;65.34
69911;BME280;57194;50.156;14.518;2022-08-19T10:11:23;98274.78;;;27.65;64.41
69911;BME280;57194;50.156;14.518;2022-08-19T10:13:49;98275.13;;;27.64;64.34
69911;BME280;57194;50.156;14.518;2022-08-19T10:16:17;98282.13;;;27.65;63.90
69911;BME280;57194;50.156;14.518;2022-08-19T10:18:45;98277.06;;;27.63;63.39
69911;BME280;57194;50.156;14.518;2022-08-19T10:21:13;98275.69;;;27.57;63.74
69911;BME280;57194;50.156;14.518;2022-08-19T10:23:42;98282.09;;;27.53;63.60
69911;BME280;57194;50.156;14.518;2022-08-19T10:26:16;98287.41;;;27.49;63.63
69911;BME280;57194;50.156;14.518;2022-08-19T10:28:43;98288.09;;;27.46;63.88
69911;BME280;57194;50.156;14.518;2022-08-19T10:31:15;98285.19;;;27.39;63.85
69911;BME280;57194;50.156;14.518;2022-08-19T10:33:41;98281.03;;;27.29;63.74
69911;BME280;57194;50.156;14.518;2022-08-19T10:36:18;98279.78;;;27.27;64.42
69911;BME280;57194;50.156;14.518;2022-08-19T10:38:49;98287.09;;;27.26;64.56
69911;BME280;57194;50.156;14.518;2022-08-19T10:41:21;98282.03;;;27.37;64.09
69911;BME280;57194;50.156;14.518;2022-08-19T10:43:54;98280.97;;;27.54;63.79
69911;BME280;57194;50.156;14.518;2022-08-19T10:46:22;98270.53;;;27.64;63.30
69911;BME280;57194;50.156;14.518;2022-08-19T10:48:48;98265.44;;;27.75;63.02
69911;BME280;57194;50.156;14.518;2022-08-19T10:51:14;98269.56;;;27.85;62.35
69911;BME280;57194;50.156;14.518;2022-08-19T10:53:59;98270.31;;;27.97;61.89
69911;BME280;57194;50.156;14.518;2022-08-19T10:56:25;98271.41;;;28.08;61.92
69911;BME280;57194;50.156;14.518;2022-08-19T10:59:09;98277.91;;;28.20;60.80
69911;BME280;57194;50.156;14.518;2022-08-19T11:01:35;98272.78;;;28.30;60.51
69911;BME280;57194;50.156;14.518;2022-08-19T11:04:02;98274.66;;;28.42;60.30
69911;BME280;57194;50.156;14.518;2022-08-19T11:06:29;98269.09;;;28.51;59.75
69911;BME280;57194;50.156;14.518;2022-08-19T11:08:56;98267.00;;;28.60;59.54
69911;BME280;57194;50.156;14.518;2022-08-19T11:11:21;98271.72;;;28.63;59.63
69911;BME280;57194;50.156;14.518;2022-08-19T11:13:48;98274.06;;;28.64;59.13
69911;BME280;57194;50.156;14.518;2022-08-19T11:16:20;98268.22;;;28.62;59.23
69911;BME280;57194;50.156;14.518;2022-08-19T11:18:54;98260.72;;;28.56;58.79
69911;BME280;57194;50.156;14.518;2022-08-19T11:21:26;98261.41;;;28.53;58.94
69911;BME280;57194;50.156;14.518;2022-08-19T11:23:54;98268.19;;;28.46;59.37
69911;BME280;57194;50.156;14.518;2022-08-19T11:26:21;98258.31;;;28.38;58.93
69911;BME280;57194;50.156;14.518;2022-08-19T11:28:47;98254.03;;;28.37;59.40
69911;BME280;57194;50.156;14.518;2022-08-19T11:31:21;98263.38;;;28.40;58.92
69911;BME280;57194;50.156;14.518;2022-08-19T11:33:47;98266.09;;;28.40;58.71
69911;BME280;57194;50.156;14.518;2022-08-19T11:36:15;98252.03;;;28.34;58.68
69911;BME280;57194;50.156;14.518;2022-08-19T11:38:41;98260.06;;;28.31;58.64
69911;BME280;57194;50.156;14.518;2022-08-19T11:41:07;98253.94;;;28.34;59.11
69911;BME280;57194;50.156;14.518;2022-08-19T11:43:34;98251.88;;;28.43;58.81
69911;BME280;57194;50.156;14.518;2022-08-19T11:46:04;98252.84;;;28.51;57.97
69911;BME280;57194;50.156;14.518;2022-08-19T11:48:31;98253.91;;;28.62;58.16
69911;BME280;57194;50.156;14.518;2022-08-19T11:50:57;98262.03;;;28.77;57.84
69911;BME280;57194;50.156;14.518;2022-08-19T11:53:22;98248.53;;;28.93;56.86
69911;BME280;57194;50.156;14.518;2022-08-19T11:55:48;98249.28;;;29.09;56.52
69911;BME280;57194;50.156;14.518;2022-08-19T11:58:16;98243.84;;;29.25;55.79
69911;BME280;57194;50.156;14.518;2022-08-19T12:00:42;98249.94;;;29.38;55.27
69911;BME280;57194;50.156;14.518;2022-08-19T12:03:10;98242.72;;;29.42;54.89
69911;BME280;57194;50.156;14.518;2022-08-19T12:05:37;98245.56;;;29.49;54.75
69911;BME280;57194;50.156;14.518;2022-08-19T12:08:02;98239.59;;;29.59;54.29
69911;BME280;57194;50.156;14.518;2022-08-19T12:10:28;98242.16;;;29.71;54.22
69911;BME280;57194;50.156;14.518;2022-08-19T12:12:54;98238.81;;;29.78;53.54
69911;BME280;57194;50.156;14.518;2022-08-19T12:15:19;98226.41;;;29.77;53.32
69911;BME280;57194;50.156;14.518;2022-08-19T12:17:44;98227.19;;;29.77;53.08
69911;BME280;57194;50.156;14.518;2022-08-19T12:20:12;98223.25;;;29.75;52.94
69911;BME280;57194;50.156;14.518;2022-08-19T12:22:39;98214.66;;;29.69;52.83
69911;BME280;57194;50.156;14.518;2022-08-19T12:25:07;98225.91;;;29.71;53.03
69911;BME280;57194;50.156;14.518;2022-08-19T12:27:33;98215.56;;;29.77;52.45
69911;BME280;57194;50.156;14.518;2022-08-19T12:30:00;98213.69;;;29.81;52.53
69911;BME280;57194;50.156;14.518;2022-08-19T12:32:26;98209.19;;;29.89;51.98
69911;BME280;57194;50.156;14.518;2022-08-19T12:34:52;98213.97;;;29.95;52.06
69911;BME280;57194;50.156;14.518;2022-08-19T12:37:17;98207.84;;;29.98;52.03
69911;BME280;57194;50.156;14.518;2022-08-19T12:39:43;98214.06;;;29.99;51.67
69911;BME280;57194;50.156;14.518;2022-08-19T12:42:10;98206.28;;;29.97;51.85
69911;BME280;57194;50.156;14.518;2022-08-19T12:44:38;98212.47;;;29.98;51.51
69911;BME280;57194;50.156;14.518;2022-08-19T12:47:05;98217.84;;;29.94;51.83
69911;BME280;57194;50.156;14.518;2022-08-19T12:49:31;98221.97;;;29.88;51.57
69911;BME280;57194;50.156;14.518;2022-08-19T12:51:59;98221.03;;;29.81;51.55
69911;BME280;57194;50.156;14.518;2022-08-19T12:54:25;98223.41;;;29.63;52.25
69911;BME280;57194;50.156;14.518;2022-08-19T12:56:51;98224.53;;;29.42;52.22
69911;BME280;57194;50.156;14.518;2022-08-19T12:59:16;98214.84;;;29.26;52.96
69911;BME280;57194;50.156;14.518;2022-08-19T13:01:44;98214.78;;;29.06;53.21
69911;BME280;57194;50.156;14.518;2022-08-19T13:04:09;98205.84;;;28.87;54.25
69911;BME280;57194;50.156;14.518;2022-08-19T13:06:35;98208.53;;;28.71;54.21
69911;BME280;57194;50.156;14.518;2022-08-19T13:09:01;98216.47;;;28.64;54.90
69911;BME280;57194;50.156;14.518;2022-08-19T13:11:27;98211.91;;;28.52;54.97